Barnstead, New Hampshire
Current Conditions -  °F | °C
As of 6:51 AM on Thursday 23 Oct 2014 (Local Time) from KCON Reporting Station
Overcast Overcast  
Wind Chill: 42°   Ceiling: 1700
Heat Index: 48°   Visibility: 10mi
Dew Point: 46°   Wind: 14mph
Humidity: 93%   Direction: 360°N
Pressure: 29.77"   Gusts: 24mph
Location:  43.33°N, 71.29°W
Report Text: KCON 231051Z AUTO 36012G21KT 10SM OVC017 09/08 A2977 RMK AO2 RAE49 SLP081 P0003 T00890078
Loading
Personal Weather Stations






























Interactive Weather Map
Tropical Storm Tracking
New forecast layout! Learn more

10-Day Weather Forecast

Advertisements
Track Severe Weather on mobile